Bicknell, Utah
Current Conditions -  °F | °C
As of 12:53 AM on Monday 26 Jan 2015 (Local Time) from KBCE Reporting Station
Clear Clear  
Wind Chill: 16°   Ceiling: Unl
Heat Index: 25°   Visibility: 10mi
Dew Point: 22°   Wind: 9mph
Humidity: 88%   Direction: 260°W
Pressure: 30.42"   Gusts: NA
Location:  38.34°N, 111.54°W
Report Text: KBCE 260753Z AUTO 26008KT 10SM CLR M04/M06 A3042 RMK AO2 SLP260 T10391056 $
Loading
Personal Weather Stations






























Interactive Weather Map New forecast layout! Learn more

10-Day Weather Forecast

Advertisements
Track Severe Weather on mobile